• Join FlightAware (Why Join?)
  • Login
  • US Flag 
09:02PM EDT


 

Airport Tracker/Info


-or-


 

Live Flight TrackerFlight Track Log ✈ OPT732 ✈ 02-May-2013 ✈ KBFI - KSDF

Flight Track Log - Related Links

Times and Time Zones

All times are in EDT time to prevent confusion due to time zone crossing. See the OPT732 flight status page for this flight to view local times or setup timezone preferences in your user account.

Time Position Orientation Groundspeed Altitude Reporting Facility
EDT Latitude Longitude Course Direction KTS MPH feet Rate Location/Type
11:39AM 47.5514 -122.3217 330° Northwest 185 213 1,200  Level Seattle Center
11:40AM 47.5797 -122.3456 330° Northwest 204 235 2,700 3,540 Climbing Seattle Center
11:41AM 47.6408 -122.4203 321° Northwest 269 310 7,000 3,360 Climbing Seattle Center
11:42AM 47.7086 -122.4519 343° North 287 330 9,900 2,340 Climbing Seattle Center
11:42AM 47.7631 -122.4481 North 283 326 11,100 1,620 Climbing Seattle Center
11:43AM 47.7864 -122.4256 33° Northeast 330 380 11,600 1,620 Climbing Seattle Center
11:43AM 47.7994 -122.3325 78° East 340 391 12,800 1,860 Climbing Seattle Center
11:44AM 47.7847 -122.2944 120° Southeast 362 417 13,500 2,040 Climbing Seattle Center
11:44AM 47.7267 -122.2161 138° Southeast 361 415 14,900 1,260 Climbing Seattle Center
11:46AM 47.6600 -122.0961 129° Southeast 378 435 15,800 1,380 Climbing Seattle Center
11:47AM 47.5878 -121.9828 133° Southeast 376 433 17,800 1,440 Climbing Seattle Center
11:48AM 47.5167 -121.8669 132° Southeast 391 450 18,800 1,260 Climbing Seattle Center
11:49AM 47.4431 -121.7408 131° Southeast 404 465 20,400 1,500 Climbing Seattle Center
11:50AM 47.4228 -121.5761 100° East 415 478 21,900 1,560 Climbing Seattle Center
11:51AM 47.4250 -121.4022 89° East 424 488 23,600 1,740 Climbing Seattle Center
11:52AM 47.4206 -121.2269 92° East 430 495 25,500 1,740 Climbing Seattle Center
11:53AM 47.4172 -121.0469 92° East 439 505 27,200 1,620 Climbing Seattle Center
11:54AM 47.4139 -120.8239 91° East 458 527 28,900 1,260 Climbing Seattle Center
11:55AM 47.4097 -120.6581 92° East 468 539 29,800 960 Climbing Seattle Center
11:56AM 47.4050 -120.4561 92° East 490 564 30,900 1,200 Climbing Seattle Center
11:57AM 47.3700 -120.2103 102° East 514 592 32,300 1,260 Climbing Seattle Center
11:58AM 47.3339 -120.0025 104° East 524 603 33,500 1,140 Climbing Seattle Center
11:59AM 47.2950 -119.7947 105° East 527 606 34,700 1,140 Climbing Seattle Center
12:00PM 47.2581 -119.5853 104° East 530 610 35,900 1,140 Climbing Seattle Center
12:01PM 47.2203 -119.3764 105° East 530 610 37,100 1,200 Climbing Seattle Center
12:02PM 47.1953 -119.1683 100° East 521 600 38,400 1,260 Climbing Seattle Center
12:03PM 47.1672 -118.9642 101° East 513 590 39,700 900 Climbing Seattle Center
12:04PM 47.1414 -118.7606 100° East 510 587 40,300 540 Climbing Seattle Center
12:05PM 47.1142 -118.5558 101° East 514 592 40,900 300 Climbing Seattle Center
12:06PM 47.0869 -118.3494 101° East 516 594 41,000  Climbing Seattle Center
12:07PM 47.0597 -118.1442 101° East 517 595 41,000  Level Seattle Center
12:08PM 47.0258 -117.8947 101° East 521 600 41,000  Level Seattle Center
12:09PM 46.9978 -117.6903 101° East 518 596 41,000  Level Seattle Center
12:10PM 46.9667 -117.4794 102° East 529 609 41,000  Level Seattle Center
12:11PM 46.9372 -117.2711 102° East 529 609 41,000  Level Seattle Center
12:12PM 46.9075 -117.0622 102° East 530 610 41,000  Level Seattle Center
12:13PM 46.8769 -116.8528 102° East 531 611 41,000  Level Seattle Center
12:14PM 46.8456 -116.6408 102° East 536 617 41,000  Level Seattle Center
12:15PM 46.8125 -116.4289 103° East 539 620 41,000  Level Seattle Center
12:16PM 46.7808 -116.2156 102° East 541 623 41,000  Level Seattle Center
12:17PM 46.7408 -115.9611 103° East 539 620 41,000  Level Seattle Center
12:18PM 46.7075 -115.7478 103° East 541 623 41,000  Level Seattle Center
12:19PM 46.6739 -115.5347 103° East 543 625 41,000  Level Seattle Center
12:20PM 46.6386 -115.3197 103° East 548 631 41,000  Level Seattle Center
12:21PM 46.6036 -115.1086 103° East 540 621 41,000  Level Seattle Center
12:21PM 46.5958 -115.0600 103° East 543 625 41,000  Level Salt Lake Center
12:22PM 46.5539 -114.8058 103° East 540 621 41,000  Level Salt Lake Center
12:23PM 46.5183 -114.5958 104° East 539 620 41,000  Level Salt Lake Center
12:25PM 46.4819 -114.3842 104° East 542 624 41,000  Level Salt Lake Center
12:26PM 46.4458 -114.1747 104° East 539 620 41,000  Level Salt Lake Center
12:27PM 46.4097 -113.9686 104° East 533 613 41,000  Level Salt Lake Center
12:28PM 46.3739 -113.7644 104° East 527 606 41,000  Level Salt Lake Center
12:29PM 46.3294 -113.5197 105° East 527 606 41,000  Level Salt Lake Center
12:30PM 46.2922 -113.3161 105° East 527 606 41,000  Level Salt Lake Center
12:31PM 46.2489 -113.0908 105° East 525 604 41,000  Level Salt Lake Center
12:32PM 46.2081 -112.8892 106° East 523 602 41,000  Level Salt Lake Center
12:33PM 46.1694 -112.6825 105° East 532 612 41,000  Level Salt Lake Center
12:34PM 46.1303 -112.4786 105° East 529 609 41,000  Level Salt Lake Center
12:35PM 46.0894 -112.2731 106° East 534 615 41,000  Level Salt Lake Center
12:36PM 46.0489 -112.0672 106° East 532 612 41,000  Level Salt Lake Center
12:37PM 46.0075 -111.8611 106° East 537 618 41,000  Level Salt Lake Center
12:38PM 45.9561 -111.6108 106° East 543 625 41,000  Level Salt Lake Center
12:39PM 45.9131 -111.4022 106° East 541 623 41,000  Level Salt Lake Center
12:40PM 45.8700 -111.1919 106° East 540 621 41,000  Level Salt Lake Center
12:41PM 45.8239 -110.9750 107° East 540 621 41,000  Level Salt Lake Center
12:42PM 45.7797 -110.7667 107° East 541 623 41,000  Level Salt Lake Center
12:43PM 45.7319 -110.5492 107° East 540 621 41,000  Level Salt Lake Center
12:44PM 45.6889 -110.3544 108° East 538 619 41,000  Level Salt Lake Center
12:45PM 45.6472 -110.1592 107° East 537 618 41,000  Level Salt Lake Center
12:46PM 45.5964 -109.9319 108° East 539 620 41,000  Level Salt Lake Center
12:47PM 45.5542 -109.7369 107° East 538 619 41,000  Level Salt Lake Center
12:48PM 45.5028 -109.5131 108° East 533 613 41,000  Level Salt Lake Center
12:49PM 45.4589 -109.3228 108° East 529 609 41,000  Level Salt Lake Center
12:51PM 45.4075 -109.0980 108° East  Level FlightAware Approximate
12:51PM 45.3633 -108.9086 108° East 530 610 41,000  Level Salt Lake Center
12:52PM 45.3183 -108.7169 108° East 535 616 41,000  Level Salt Lake Center
12:53PM 45.2664 -108.4961 108° East 528 608 41,000  Level Salt Lake Center
12:54PM 45.2208 -108.3056 109° East 530 610 41,000  Level Salt Lake Center
12:55PM 45.1667 -108.0825 109° East 532 612 41,000  Level Salt Lake Center
12:56PM 45.1197 -107.8911 109° East 533 613 41,000  Level Salt Lake Center
12:58PM 45.0733 -107.6992 109° East 531 611 41,000  Level Salt Lake Center
12:59PM 45.0175 -107.4736 109° East 537 618 41,000  Level Salt Lake Center
01:00PM 44.9692 -107.2811 109° East 539 620 41,000  Level Salt Lake Center
01:01PM 44.9139 -107.0575 109° East 538 619 41,000  Level Salt Lake Center
01:02PM 44.8647 -106.8681 110° East 537 618 41,000  Level Salt Lake Center
01:03PM 44.8167 -106.6769 109° East 540 621 41,000  Level Salt Lake Center
01:04PM 44.7597 -106.4553 110° East 539 620 41,000  Level Salt Lake Center
01:05PM 44.7089 -106.2672 111° Southeast 538 619 41,000  Level Salt Lake Center
01:06PM 44.6533 -106.0539 110° East 540 621 41,000  Level Salt Lake Center
01:07PM 44.6039 -105.8664 110° East 536 617 41,000  Level Salt Lake Center
01:08PM 44.5453 -105.6508 111° Southeast 529 609 41,000  Level Salt Lake Center
01:09PM 44.4786 -105.4022 111° Southeast 532 612 41,000  Level Denver Center
01:10PM 44.4281 -105.2178 111° Southeast 531 611 41,000  Level Denver Center
01:11PM 44.3694 -105.0031 111° Southeast 530 610 41,000  Level Denver Center
01:12PM 44.3172 -104.8203 112° Southeast 529 609 41,000  Level Denver Center
01:13PM 44.2575 -104.6061 111° Southeast 529 609 41,000  Level Denver Center
01:14PM 44.2064 -104.4231 111° Southeast 529 609 41,000  Level Denver Center
01:15PM 44.1450 -104.2119 112° Southeast 525 604 41,000  Level Denver Center
01:16PM 44.0933 -104.0272 111° Southeast 532 612 41,000  Level Denver Center
01:17PM 44.0400 -103.8450 112° Southeast 532 612 41,000  Level Denver Center
01:18PM 43.9783 -103.6336 112° Southeast 530 610 41,000  Level Denver Center
01:19PM 43.9247 -103.4511 112° Southeast 532 612 41,000  Level Denver Center
01:20PM 43.8644 -103.2431 112° Southeast 523 602 41,000  Level Denver Center
01:21PM 43.8111 -103.0656 113° Southeast 523 602 41,000  Level Denver Center
01:23PM 43.7467 -102.8539 113° Southeast 529 609 41,000  Level Denver Center
01:24PM 43.6914 -102.6753 113° Southeast 529 609 41,000  Level Denver Center
01:25PM 43.6269 -102.4672 113° Southeast 528 608 41,000  Level Denver Center
01:26PM 43.5747 -102.2917 112° Southeast 524 603 41,000  Level Denver Center
01:27PM 43.5200 -102.1153 113° Southeast 525 604 41,000  Level Denver Center
01:28PM 43.4500 -101.8942 113° Southeast 525 604 41,000  Level Denver Center
01:29PM 43.3928 -101.7089 113° Southeast 527 606 41,000  Level Denver Center
01:30PM 43.3339 -101.5239 114° Southeast 530 610 41,000  Level Denver Center
01:31PM 43.2750 -101.3386 114° Southeast 532 612 41,000  Level Denver Center
01:32PM 43.2153 -101.1542 114° Southeast 532 612 41,000  Level Denver Center
01:33PM 43.1569 -100.9722 114° Southeast 526 605 41,000  Level Denver Center
01:34PM 43.0858 -100.7511 114° Southeast 531 611 41,000  Level Denver Center
01:35PM 43.0258 -100.5686 114° Southeast 528 608 41,000  Level Denver Center
01:35PM 43.0261 -100.5694 295° West 530 610 41,000  Level Minneapolis Center
01:36PM 42.9542 -100.3517 114° Southeast 528 608 41,000  Level Minneapolis Center
01:37PM 42.8922 -100.1700 115° Southeast 530 610 41,000  Level Minneapolis Center
01:38PM 42.8436 -100.0206 114° Southeast 532 612 41,000  Level Denver Center
01:39PM 42.7819 -99.8397 115° Southeast 531 611 41,000  Level Denver Center
01:40PM 42.7089 -99.6225 115° Southeast 529 609 41,000  Level Denver Center
01:40PM 42.6964 -99.5864 115° Southeast 530 610 41,000  Level Minneapolis Center
01:42PM 42.6353 -99.4033 114° Southeast 529 609 41,000  Level Minneapolis Center
01:43PM 42.5600 -99.1897 116° Southeast 523 602 41,000  Level Minneapolis Center
01:44PM 42.4983 -99.0094 115° Southeast 524 603 41,000  Level Minneapolis Center
01:45PM 42.4353 -98.8297 115° Southeast 527 606 41,000  Level Minneapolis Center
01:46PM 42.3592 -98.6150 116° Southeast 525 604 41,000  Level Minneapolis Center
01:47PM 42.2969 -98.4372 115° Southeast 524 603 41,000  Level Minneapolis Center
01:48PM 42.2225 -98.2297 116° Southeast 514 592 41,100 240 Climbing Minneapolis Center
01:49PM 42.1597 -98.0550 116° Southeast 515 593 41,500 360 Climbing Minneapolis Center
01:50PM 42.0919 -97.8692 116° Southeast 511 588 41,900 420 Climbing Minneapolis Center
01:51PM 42.0306 -97.6983 116° Southeast 508 585 42,400 420 Climbing Minneapolis Center
01:52PM 41.9694 -97.5278 116° Southeast 507 583 42,800 420 Climbing Minneapolis Center
01:53PM 41.9067 -97.3597 117° Southeast 506 582 43,300 420 Climbing Minneapolis Center
01:54PM 41.8442 -97.1897 116° Southeast 506 582 43,700 360 Climbing Minneapolis Center
01:55PM 41.7814 -97.0225 117° Southeast 504 580 44,100 420 Climbing Minneapolis Center
01:56PM 41.7189 -96.8547 116° Southeast 503 579 44,600 420 Climbing Minneapolis Center
01:57PM 41.6433 -96.6561 117° Southeast 501 577 45,000 180 Climbing Minneapolis Center
01:58PM 41.5817 -96.4897 116° Southeast 501 577 45,000  Level Minneapolis Center
01:59PM 41.5197 -96.3311 118° Southeast 503 579 45,000  Level Minneapolis Center
02:00PM 41.4542 -96.1625 117° Southeast 509 586 45,000  Level Minneapolis Center
02:01PM 41.3900 -95.9956 117° Southeast 507 583 45,000  Level Minneapolis Center
02:02PM 41.3128 -95.7958 117° Southeast 506 582 45,000  Level Minneapolis Center
02:03PM 41.2481 -95.6303 117° Southeast 503 579 45,000  Level Minneapolis Center
02:04PM 41.1861 -95.4753 118° Southeast 507 583 45,000  Level Minneapolis Center
02:06PM 41.1200 -95.3078 118° Southeast 511 588 45,000  Level Minneapolis Center
02:07PM 41.0542 -95.1403 117° Southeast 513 590 45,000  Level Minneapolis Center
02:08PM 40.9617 -94.9075 118° Southeast 510 587 45,000  Level Minneapolis Center
02:09PM 40.8958 -94.7433 118° Southeast 507 583 45,000  Level Minneapolis Center
02:10PM 40.8294 -94.5794 118° Southeast 506 582 45,000  Level Minneapolis Center
02:11PM 40.7447 -94.3736 118° Southeast 508 585 45,000  Level Minneapolis Center
02:12PM 40.6781 -94.2108 118° Southeast 508 585 45,000  Level Minneapolis Center
02:13PM 40.6094 -94.0497 119° Southeast 508 585 45,000  Level Minneapolis Center
02:14PM 40.5308 -93.8550 118° Southeast 507 583 45,000  Level Minneapolis Center
02:15PM 40.4614 -93.6942 120° Southeast 507 583 45,000  Level Minneapolis Center
02:16PM 40.3806 -93.5000 119° Southeast 508 585 45,000  Level Minneapolis Center
02:17PM 40.3383 -93.4011 119° Southeast 510 587 45,000  Level Kansas City Center
02:18PM 40.2708 -93.2431 119° Southeast 506 582 45,000  Level Kansas City Center
02:19PM 40.2044 -93.0831 118° Southeast 506 582 45,000  Level Kansas City Center
02:20PM 40.1294 -92.9100 120° Southeast 508 585 45,000  Level Kansas City Center
02:21PM 40.0550 -92.7347 119° Southeast 510 587 45,000  Level Kansas City Center
02:22PM 39.9881 -92.5767 119° Southeast 510 587 45,000  Level Kansas City Center
02:23PM 39.9183 -92.4189 120° Southeast 510 587 45,000  Level Kansas City Center
02:24PM 39.8481 -92.2606 120° Southeast 511 588 45,000  Level Kansas City Center
02:25PM 39.7650 -92.0697 119° Southeast 511 588 45,000  Level Kansas City Center
02:26PM 39.6953 -91.9128 120° Southeast 508 585 45,000  Level Kansas City Center
02:27PM 39.6250 -91.7558 120° Southeast 508 585 45,000  Level Kansas City Center
02:28PM 39.5544 -91.6000 120° Southeast 506 582 45,000  Level Kansas City Center
02:29PM 39.4747 -91.4222 120° Southeast 502 578 45,000  Level Kansas City Center
02:30PM 39.4050 -91.2642 120° Southeast 505 581 45,000  Level Kansas City Center
02:31PM 39.3342 -91.1086 120° Southeast 504 580 45,000  Level Kansas City Center
02:33PM 39.2636 -90.9542 121° Southeast 501 577 45,000  Level Kansas City Center
02:34PM 39.1925 -90.8000 121° Southeast 501 577 45,000  Level Kansas City Center
02:35PM 39.1219 -90.6461 121° Southeast 497 572 45,000  Level Kansas City Center
02:36PM 39.0511 -90.4922 121° Southeast 498 573 45,000  Level Kansas City Center
02:37PM 38.9797 -90.3369 121° Southeast 499 574 45,000  Level Kansas City Center
02:38PM 38.9003 -90.1664 121° Southeast 500 575 45,000  Level Kansas City Center
02:39PM 38.8186 -89.9944 121° Southeast 504 580 45,000  Level Kansas City Center
02:40PM 38.7450 -89.8372 121° Southeast 510 587 45,000  Level Kansas City Center
02:41PM 38.6714 -89.6828 121° Southeast 508 585 45,000  Level Kansas City Center
02:42PM 38.5936 -89.5186 121° Southeast 507 583 45,000 -480 Level Kansas City Center
02:43PM 38.5131 -89.3533 122° Southeast 507 583 44,100 -1,500 Descending Kansas City Center
02:44PM 38.4406 -89.2053 122° Southeast 494 568 42,000 -2,160 Descending Kansas City Center
02:45PM 38.4114 -89.0425 103° East 477 549 39,700 -2,400 Descending Kansas City Center
02:46PM 38.4053 -88.8475 92° East 510 587 37,100 -2,400 Descending Kansas City Center
02:47PM 38.3975 -88.6753 93° East 489 563 34,800 -2,340 Descending Kansas City Center
02:48PM 38.3883 -88.4947 94° East 488 562 32,400 -2,340 Descending Kansas City Center
02:49PM 38.3814 -88.3175 93° East 497 572 30,100 -1,680 Descending Kansas City Center
02:50PM 38.3714 -88.1367 94° East 508 585 29,000 -1,260 Descending Kansas City Center
02:50PM 38.3694 -88.0658 92° East 507 583 28,400 -1,800 Descending Indianapolis Center
02:51PM 38.3614 -87.8850 93° East 511 588 26,500 -1,920 Descending Indianapolis Center
02:52PM 38.3514 -87.7072 94° East 504 580 24,500 -1,980 Descending Indianapolis Center
02:54PM 38.3422 -87.5403 94° East 479 551 22,400 -2,040 Descending Indianapolis Center
02:55PM 38.3336 -87.3758 94° East 468 539 20,400 -1,740 Descending Indianapolis Center
02:56PM 38.3208 -87.2225 96° East 445 512 18,900 -1,680 Descending Indianapolis Center
02:57PM 38.2981 -87.0411 99° East 439 505 17,000 -1,980 Descending Indianapolis Center
02:58PM 38.2808 -86.9078 99° East 423 487 14,800 -2,220 Descending Indianapolis Center
02:59PM 38.2622 -86.7617 99° East 420 483 12,500 -1,920 Descending Indianapolis Center
03:00PM 38.2403 -86.5958 100° East 398 458 10,900 -1,020 Descending Indianapolis Center
03:01PM 38.2247 -86.4753 99° East 355 409 10,500 -1,380 Descending Indianapolis Center
03:02PM 38.2117 -86.3739 99° East 298 343 8,100 -2,160 Descending Indianapolis Center
03:03PM 38.2228 -86.2861 81° East 272 313 6,100 -1,260 Descending Indianapolis Center
03:04PM 38.2708 -86.2236 46° Northeast 247 284 5,500 -1,020 Descending Indianapolis Center
03:05PM 38.3217 -86.1561 46° Northeast 251 289 4,000 -1,200 Descending Indianapolis Center
03:06PM 38.3389 -86.0631 77° East 265 305 3,100 -540 Descending Indianapolis Center
03:07PM 38.3617 -85.9528 75° East 267 307 3,000 -60 Descending Indianapolis Center
03:08PM 38.3608 -85.8653 91° East 262 302 3,000  Level Indianapolis Center
03:09PM 38.3269 -85.8058 126° Southeast 224 258 3,000 -300 Level Indianapolis Center
03:10PM 38.2817 -85.7803 156° South 197 227 2,400 -600 Descending Indianapolis Center
03:13PM 38.1741 -85.7365 137° Southeast  Level Estimated
03:20PM 38.1741 -85.7365 293° West  Level Estimated
03:21PM 38.1741 -85.7365 293° West  Level Estimated